Time;durP1;ratioP1;P1;durP2;ratioP2;P2;SDS_P1;SDS_P2;PMS_P1;PMS_P2;Temp;Humidity;BMP_temperature;BMP_pressure;BME280_temperature;BME280_humidity;BME280_pressure;Samples;Min_cycle;Max_cycle;Signal;HPM_P1;HPM_P2
2022/12/16 00:02:40;;;;;;;30.20;27.70;;;;;;;21.07;36.35;94854.78;6226290;28;103339;-63
2022/12/16 00:05:43;;;;;;;32.13;29.37;;;;;;;21.07;36.51;94852.13;6217171;28;103511;-62
2022/12/16 00:08:47;;;;;;;30.10;27.60;;;;;;;21.06;36.50;94866.53;6211482;27;103716;-63
2022/12/16 00:11:51;;;;;;;29.90;27.40;;;;;;;21.06;36.29;94867.31;6212573;28;106724;-62
2022/12/16 00:14:54;;;;;;;29.83;27.33;;;;;;;21.08;36.15;94859.03;6205195;28;103119;-62
2022/12/16 00:17:57;;;;;;;31.97;29.07;;;;;;;21.05;36.35;94862.28;6227511;28;103202;-62
2022/12/16 00:21:00;;;;;;;30.30;27.53;;;;;;;21.05;36.28;94849.78;6215822;28;104244;-62
2022/12/16 00:24:04;;;;;;;30.20;27.53;;;;;;;21.06;36.26;94853.22;6213240;28;104178;-62
2022/12/16 00:27:08;;;;;;;31.13;28.53;;;;;;;21.05;36.07;94851.66;6205632;28;103929;-62
2022/12/16 00:30:12;;;;;;;30.57;27.97;;;;;;;21.05;35.98;94857.75;6238183;28;103918;-62
2022/12/16 00:33:15;;;;;;;29.77;27.33;;;;;;;21.06;36.10;94843.38;6217198;27;104423;-62
2022/12/16 00:36:18;;;;;;;30.40;27.70;;;;;;;21.05;36.23;94857.75;6230179;28;103113;-62
2022/12/16 00:39:23;;;;;;;30.87;28.20;;;;;;;21.06;36.36;94853.22;6236987;28;104324;-62
2022/12/16 00:42:26;;;;;;;31.53;28.87;;;;;;;21.03;35.96;94859.13;6226657;28;103646;-62
2022/12/16 00:45:30;;;;;;;30.77;28.10;;;;;;;21.05;36.08;94868.41;6206888;28;104074;-62
2022/12/16 00:48:33;;;;;;;32.57;29.63;;;;;;;21.05;36.06;94860.41;6213758;28;103261;-62
2022/12/16 00:51:36;;;;;;;30.87;28.07;;;;;;;21.06;36.24;94847.91;6213273;28;103124;-62
2022/12/16 00:54:40;;;;;;;33.63;30.37;;;;;;;21.05;36.23;94846.34;6206422;27;104194;-62
2022/12/16 00:57:43;;;;;;;31.33;28.43;;;;;;;20.99;36.35;94831.53;6236008;28;103510;-63
2022/12/16 01:00:47;;;;;;;31.10;28.13;;;;;;;21.04;36.11;94845.50;6222353;28;102972;-62
2022/12/16 01:03:50;;;;;;;32.40;29.60;;;;;;;21.05;36.25;94849.00;6219076;28;104383;-62
2022/12/16 01:06:53;;;;;;;30.97;28.20;;;;;;;21.05;35.88;94846.34;6217600;27;105123;-62
2022/12/16 01:09:58;;;;;;;32.43;29.63;;;;;;;21.07;36.34;94849.47;6216448;28;103874;-62
2022/12/16 01:13:01;;;;;;;32.53;29.50;;;;;;;21.06;35.92;94847.91;6212891;28;103297;-62
2022/12/16 01:16:05;;;;;;;32.40;29.50;;;;;;;21.05;35.95;94831.16;6227525;28;104218;-62
2022/12/16 01:19:08;;;;;;;31.30;28.43;;;;;;;21.05;36.19;94846.34;6215521;27;102992;-62
2022/12/16 01:22:12;;;;;;;32.33;29.53;;;;;;;21.05;36.15;94839.13;6213106;28;103302;-63
2022/12/16 01:25:17;;;;;;;31.53;28.63;;;;;;;21.04;36.10;94856.16;6213286;28;103187;-62
2022/12/16 01:28:20;;;;;;;32.83;29.93;;;;;;;21.07;36.08;94844.16;6208081;28;103347;-63
2022/12/16 01:31:24;;;;;;;33.40;30.40;;;;;;;21.06;35.79;94842.59;6219830;28;104268;-63
2022/12/16 01:34:27;;;;;;;32.97;29.77;;;;;;;21.05;36.28;94835.69;6230132;28;103407;-63
2022/12/16 01:37:30;;;;;;;33.77;30.60;;;;;;;21.04;36.24;94823.44;6211562;28;102820;-63
2022/12/16 01:40:35;;;;;;;32.60;29.70;;;;;;;21.05;36.23;94817.84;6201000;28;103207;-63
2022/12/16 01:43:39;;;;;;;32.60;29.70;;;;;;;21.05;36.06;94836.47;6223312;28;103331;-63
2022/12/16 01:46:45;;;;;;;33.40;30.23;;;;;;;21.04;35.95;94821.56;6219432;28;103491;-63
2022/12/16 01:49:53;;;;;;;33.50;30.60;;;;;;;21.05;35.92;94825.84;6198747;28;104157;-63
2022/12/16 01:53:00;;;;;;;32.43;29.47;;;;;;;21.05;36.22;94812.53;6208324;28;104043;-62
2022/12/16 01:56:05;;;;;;;32.37;29.37;;;;;;;21.05;36.07;94820.50;6212275;28;103120;-63
2022/12/16 01:59:11;;;;;;;33.23;30.00;;;;;;;20.98;35.94;94793.50;6212889;28;104038;-63
2022/12/16 02:02:15;;;;;;;33.30;30.40;;;;;;;20.96;36.32;94810.88;6210350;28;103377;-62
2022/12/16 02:05:21;;;;;;;33.53;30.30;;;;;;;21.03;36.10;94805.91;6198548;28;104005;-63
2022/12/16 02:08:24;;;;;;;33.73;30.50;;;;;;;21.05;36.06;94831.16;6212081;28;103021;-63
2022/12/16 02:11:57;;;;;;;34.43;31.17;;;;;;;21.04;35.80;94818.13;6211796;28;103231;-63
2022/12/16 02:15:14;;;;;;;33.00;30.10;;;;;;;21.05;36.01;94771.84;6210499;28;103071;-63
2022/12/16 02:18:27;;;;;;;32.77;29.67;;;;;;;21.04;36.14;94794.19;6197372;28;103298;-63
2022/12/16 02:21:49;;;;;;;33.20;30.20;;;;;;;21.04;36.00;94764.91;6207357;28;102986;-63
2022/12/16 02:25:19;;;;;;;32.97;29.77;;;;;;;21.04;36.08;94770.25;6216738;28;104099;-63
2022/12/16 02:28:41;;;;;;;33.03;30.00;;;;;;;21.04;36.29;94781.66;6220908;28;103939;-62
2022/12/16 02:31:54;;;;;;;33.53;30.53;;;;;;;21.03;35.90;94769.47;6215164;28;103210;-62
2022/12/16 02:35:07;;;;;;;32.10;29.10;;;;;;;21.01;36.01;94781.50;6219201;28;104188;-62
2022/12/16 02:38:21;;;;;;;33.43;30.30;;;;;;;20.96;36.37;94785.06;6208356;28;104581;-62
2022/12/16 02:41:33;;;;;;;33.33;30.17;;;;;;;21.04;35.98;94784.31;6215562;28;103198;-62
2022/12/16 02:44:44;;;;;;;35.60;32.33;;;;;;;20.99;36.00;94757.06;6225570;28;104363;-63
2022/12/16 02:47:48;;;;;;;34.77;31.57;;;;;;;21.04;35.72;94791.53;6208634;28;103130;-63
2022/12/16 02:50:53;;;;;;;33.77;30.60;;;;;;;21.05;36.12;94819.72;6222909;28;103218;-63
2022/12/16 02:53:56;;;;;;;32.60;29.53;;;;;;;21.04;36.07;94792.31;6221467;28;104031;-63
2022/12/16 02:57:12;;;;;;;32.93;29.83;;;;;;;21.04;36.21;94772.91;6218404;28;104360;-63
2022/12/16 03:00:19;;;;;;;34.70;31.50;;;;;;;20.98;36.13;94846.72;6213293;27;103148;-63
2022/12/16 03:03:33;;;;;;;32.67;29.57;;;;;;;21.04;35.83;94812.81;6221398;28;104410;-64
2022/12/16 03:06:40;;;;;;;32.90;29.87;;;;;;;21.05;36.03;94838.34;6217313;28;103226;-63
2022/12/16 03:09:46;;;;;;;32.33;29.03;;;;;;;20.81;36.03;94794.19;6225468;28;102790;-62
2022/12/16 03:12:49;;;;;;;32.70;29.50;;;;;;;21.03;35.88;94833.31;6200284;28;104230;-63
2022/12/16 03:15:55;;;;;;;32.77;29.77;;;;;;;20.99;35.90;94820.91;6210728;28;103027;-63
2022/12/16 03:19:04;;;;;;;33.67;30.37;;;;;;;21.03;36.20;94789.97;6215592;28;104511;-63
2022/12/16 03:22:12;;;;;;;32.10;29.07;;;;;;;21.03;35.98;94805.91;6216150;28;103473;-63
2022/12/16 03:25:15;;;;;;;32.13;29.23;;;;;;;21.02;36.13;94809.66;6221529;28;103544;-63
2022/12/16 03:28:31;;;;;;;33.00;29.83;;;;;;;21.03;36.17;94760.69;6215880;27;103322;-63
2022/12/16 03:31:41;;;;;;;32.03;29.13;;;;;;;20.98;36.01;94798.03;6214285;28;104387;-63
2022/12/16 03:34:51;;;;;;;30.27;27.60;;;;;;;21.03;35.74;94769.47;6208505;28;103278;-64
2022/12/16 03:37:58;;;;;;;31.87;28.77;;;;;;;21.02;35.98;94802.47;6222517;28;103225;-64
2022/12/16 03:41:02;;;;;;;33.53;30.17;;;;;;;21.04;36.04;94791.53;6224282;28;104204;-63
2022/12/16 03:44:08;;;;;;;31.47;28.57;;;;;;;21.02;35.86;94783.06;6218308;28;102906;-63
2022/12/16 03:47:11;;;;;;;31.70;28.67;;;;;;;21.01;36.08;94760.22;6215108;28;103021;-64
2022/12/16 03:50:26;;;;;;;31.53;28.63;;;;;;;21.02;35.89;94815.78;6227436;28;104418;-64
2022/12/16 03:53:29;;;;;;;31.77;28.87;;;;;;;21.02;36.18;94772.44;6206159;28;103103;-63
2022/12/16 03:56:32;;;;;;;30.10;27.30;;;;;;;21.05;36.30;94841.00;6216916;27;103394;-63
2022/12/16 03:59:35;;;;;;;30.10;27.40;;;;;;;21.04;35.83;94826.09;6216191;28;104065;-63
2022/12/16 04:02:38;;;;;;;30.47;27.67;;;;;;;21.04;36.23;94832.22;6214227;28;103117;-63
2022/12/16 04:05:45;;;;;;;30.93;27.87;;;;;;;21.05;36.13;94819.72;6220974;28;103065;-63
2022/12/16 04:08:48;;;;;;;30.53;27.77;;;;;;;21.04;35.96;94821.56;6205965;28;104370;-63
2022/12/16 04:25:20;;;;;;;31.37;28.57;;;;;;;21.12;36.25;94852.78;6207159;28;103242;-63
2022/12/16 04:28:23;;;;;;;31.60;28.30;;;;;;;21.13;36.21;94816.31;6209156;28;104215;-62
2022/12/16 04:31:27;;;;;;;33.00;30.00;;;;;;;21.13;36.46;94819.75;6197408;28;103734;-65
2022/12/16 04:34:29;;;;;;;31.70;28.70;;;;;;;21.12;36.63;94791.59;6219615;28;104189;-66
